createdAt,value
2022-08-07T00:00:15.309Z,98.60
2022-08-07T00:03:15.634Z,97.70
2022-08-07T00:06:13.294Z,99.30
2022-08-07T00:09:16.684Z,99.90
2022-08-07T00:12:19.319Z,99.70
2022-08-07T00:15:16.638Z,98.60
2022-08-07T00:18:24.028Z,98.90
2022-08-07T00:21:55.946Z,99.30
2022-08-07T00:24:38.753Z,98.70
2022-08-07T00:27:53.235Z,98.70
2022-08-07T00:30:50.936Z,97.20
2022-08-07T00:33:47.967Z,99.00
2022-08-07T00:36:44.884Z,99.10
2022-08-07T00:39:45.090Z,99.20
2022-08-07T00:42:51.020Z,99.90
2022-08-07T00:45:49.639Z,99.40
2022-08-07T00:48:49.889Z,99.00
2022-08-07T00:51:57.020Z,97.90
2022-08-07T00:54:55.639Z,98.10
2022-08-07T00:57:55.873Z,98.30
2022-08-07T01:00:53.897Z,99.20
2022-08-07T01:03:56.904Z,99.90
2022-08-07T01:06:56.866Z,99.90
2022-08-07T01:10:05.711Z,99.90
2022-08-07T01:13:05.466Z,99.90
2022-08-07T01:16:06.104Z,99.90
2022-08-07T01:19:14.884Z,99.90
2022-08-07T01:22:22.878Z,99.90
2022-08-07T01:25:53.997Z,99.90
2022-08-07T01:28:51.788Z,99.90
2022-08-07T01:31:49.646Z,99.90
2022-08-07T01:34:47.501Z,99.70
2022-08-07T01:37:46.693Z,99.90
2022-08-07T01:40:45.753Z,99.90
2022-08-07T01:43:44.889Z,99.90
2022-08-07T01:46:42.938Z,99.90
2022-08-07T01:49:39.898Z,99.90
2022-08-07T01:52:38.969Z,99.90
2022-08-07T01:55:51.319Z,99.90
2022-08-07T01:58:59.144Z,99.90
2022-08-07T02:03:11.485Z,99.90
2022-08-07T02:05:48.207Z,99.70
2022-08-07T02:09:00.015Z,99.90
2022-08-07T02:12:03.460Z,88.10
2022-08-07T02:15:06.766Z,87.20
2022-08-07T02:18:04.882Z,88.30
2022-08-07T02:21:06.391Z,86.10
2022-08-07T02:24:04.643Z,90.00
2022-08-07T02:27:02.805Z,90.50
2022-08-07T02:30:03.546Z,82.30
2022-08-07T02:33:09.515Z,81.30
2022-08-07T02:36:28.266Z,86.90
2022-08-07T02:39:43.085Z,87.50
2022-08-07T02:42:41.998Z,90.50
2022-08-07T02:45:58.069Z,91.20
2022-08-07T02:48:58.274Z,91.10
2022-08-07T02:51:58.851Z,89.90
2022-08-07T02:54:58.346Z,90.60
2022-08-07T02:58:02.940Z,84.60
2022-08-07T03:01:03.416Z,90.90
2022-08-07T03:07:07.220Z,99.90
2022-08-07T03:10:09.625Z,95.70
2022-08-07T03:13:07.557Z,89.40
2022-08-07T03:16:05.987Z,92.70
2022-08-07T03:19:03.171Z,91.50
2022-08-07T03:22:04.399Z,90.10
2022-08-07T03:25:01.888Z,94.10
2022-08-07T03:28:09.731Z,93.90
2022-08-07T03:31:24.728Z,93.20
2022-08-07T03:34:39.719Z,89.50
2022-08-07T03:37:54.043Z,87.40
2022-08-07T03:40:57.344Z,88.90
2022-08-07T03:43:57.090Z,88.00
2022-08-07T03:47:12.959Z,92.40
2022-08-07T03:50:11.784Z,88.00
2022-08-07T03:53:10.354Z,92.70
2022-08-07T03:56:10.196Z,93.40
2022-08-07T03:59:13.874Z,94.90
2022-08-07T04:02:11.892Z,96.30
2022-08-07T04:05:11.485Z,99.90
2022-08-07T04:08:16.063Z,99.90
2022-08-07T04:12:25.548Z,99.90
2022-08-07T04:14:37.248Z,99.90
2022-08-07T04:18:31.004Z,87.50
2022-08-07T04:20:54.561Z,93.00
2022-08-07T04:24:05.678Z,93.10
2022-08-07T04:27:05.245Z,93.20
2022-08-07T04:30:35.581Z,92.70
2022-08-07T04:33:29.598Z,94.40
2022-08-07T04:36:26.899Z,99.90
2022-08-07T04:39:27.989Z,99.70
2022-08-07T04:42:34.368Z,99.90
2022-08-07T04:46:00.691Z,97.70
2022-08-07T04:49:38.671Z,96.70
2022-08-07T04:52:59.335Z,99.90
2022-08-07T04:58:24.301Z,99.90
2022-08-07T05:00:11.222Z,99.90
2022-08-07T05:04:00.475Z,97.20
2022-08-07T05:07:09.578Z,97.90
2022-08-07T05:10:23.186Z,99.90
2022-08-07T05:14:54.446Z,98.10
2022-08-07T05:16:59.032Z,99.90
2022-08-07T05:19:57.516Z,99.90
2022-08-07T05:23:07.009Z,97.50
2022-08-07T05:26:23.951Z,96.00
2022-08-07T05:29:23.687Z,99.90
2022-08-07T05:32:24.819Z,93.00
2022-08-07T05:35:23.892Z,95.00
2022-08-07T05:38:59.452Z,96.70
2022-08-07T05:42:01.880Z,95.90
2022-08-07T05:45:14.445Z,97.50
2022-08-07T05:48:20.927Z,97.70
2022-08-07T05:51:24.586Z,98.60
2022-08-07T05:54:44.060Z,96.30
2022-08-07T05:57:42.381Z,94.90
2022-08-07T06:00:40.279Z,96.10
2022-08-07T06:03:56.848Z,96.50
2022-08-07T06:07:03.367Z,92.90
2022-08-07T06:10:05.598Z,91.40
2022-08-07T06:13:03.479Z,91.90
2022-08-07T06:16:03.330Z,80.30
2022-08-07T06:19:03.061Z,80.50
2022-08-07T06:22:15.779Z,80.80
2022-08-07T06:25:20.633Z,77.50
2022-08-07T06:28:28.014Z,79.10
2022-08-07T06:31:46.531Z,83.90
2022-08-07T06:34:45.288Z,83.10
2022-08-07T06:37:43.586Z,77.30
2022-08-07T06:40:48.201Z,82.20
2022-08-07T06:43:59.191Z,84.30
2022-08-07T06:47:12.541Z,77.50
2022-08-07T06:50:13.482Z,78.00
2022-08-07T06:54:11.546Z,80.50
2022-08-07T06:56:49.833Z,78.30
2022-08-07T07:00:12.928Z,73.40
2022-08-07T07:03:10.871Z,73.50
2022-08-07T07:06:11.545Z,74.70
2022-08-07T07:09:31.245Z,72.60
2022-08-07T07:12:53.778Z,72.50
2022-08-07T07:16:00.318Z,68.70
2022-08-07T07:19:34.018Z,71.20
2022-08-07T07:22:35.894Z,76.60
2022-08-07T07:26:35.139Z,70.90
2022-08-07T07:29:38.674Z,70.90
2022-08-07T07:32:23.940Z,70.50
2022-08-07T07:35:23.124Z,74.20
2022-08-07T07:38:25.411Z,80.00
2022-08-07T07:41:24.099Z,79.20
2022-08-07T07:44:49.671Z,82.50
2022-08-07T07:47:52.647Z,77.30
2022-08-07T07:50:52.304Z,77.10
2022-08-07T07:53:52.814Z,75.80
2022-08-07T07:56:52.436Z,77.90
2022-08-07T07:59:53.837Z,76.50
2022-08-07T08:03:01.295Z,78.20
2022-08-07T08:06:03.912Z,78.50
2022-08-07T08:09:05.939Z,70.60
2022-08-07T08:12:06.260Z,71.20
2022-08-07T08:15:06.847Z,69.90
2022-08-07T08:18:36.884Z,68.70
2022-08-07T08:21:58.604Z,69.50
2022-08-07T08:25:41.859Z,67.20
2022-08-07T08:28:44.847Z,70.80
2022-08-07T08:32:17.522Z,68.40
2022-08-07T08:35:01.549Z,71.90
2022-08-07T08:38:04.581Z,66.60
2022-08-07T08:41:57.037Z,68.10
2022-08-07T08:45:13.320Z,63.70
2022-08-07T08:48:55.438Z,74.60
2022-08-07T08:52:24.465Z,67.20
2022-08-07T08:55:54.730Z,75.20
2022-08-07T09:02:35.246Z,87.10
2022-08-07T09:06:04.905Z,84.50
2022-08-07T09:09:56.692Z,68.50
2022-08-07T09:13:14.843Z,78.10
2022-08-07T09:16:48.131Z,77.70
2022-08-07T09:20:30.712Z,74.90
2022-08-07T09:24:53.661Z,65.70
2022-08-07T09:27:31.168Z,73.60
2022-08-07T09:40:12.849Z,97.20
2022-08-07T09:44:19.944Z,94.60
2022-08-07T09:48:06.180Z,63.80
2022-08-07T09:52:17.072Z,58.70
2022-08-07T09:56:02.439Z,57.90
2022-08-07T09:59:26.935Z,60.30
2022-08-07T10:03:08.199Z,60.60
2022-08-07T10:06:37.875Z,59.10
2022-08-07T10:14:00.281Z,56.50
2022-08-07T10:18:01.804Z,61.30
2022-08-07T10:21:19.827Z,56.70
2022-08-07T10:25:23.054Z,57.00
2022-08-07T10:28:49.602Z,56.60
2022-08-07T10:32:52.715Z,57.90
2022-08-07T10:36:41.408Z,58.20
2022-08-07T10:40:09.139Z,60.90
2022-08-07T10:43:34.186Z,57.60
2022-08-07T10:46:47.214Z,57.90
2022-08-07T10:49:54.868Z,59.20
2022-08-07T10:53:21.238Z,55.30
2022-08-07T10:57:00.164Z,56.10
2022-08-07T11:00:36.555Z,57.90
2022-08-07T11:03:52.671Z,53.40
2022-08-07T11:07:58.734Z,55.40
2022-08-07T11:11:35.933Z,55.60
2022-08-07T11:14:45.419Z,52.00
2022-08-07T11:18:36.941Z,55.40
2022-08-07T11:22:03.430Z,52.80
2022-08-07T11:25:14.864Z,56.20
2022-08-07T11:28:21.164Z,53.70
2022-08-07T11:31:49.009Z,52.30
2022-08-07T11:35:01.004Z,48.40
2022-08-07T11:38:10.177Z,55.00
2022-08-07T11:41:31.053Z,52.20
2022-08-07T11:44:57.883Z,55.60
2022-08-07T11:48:44.187Z,52.50
2022-08-07T11:52:37.616Z,51.70
2022-08-07T11:56:28.839Z,46.90
2022-08-07T12:00:12.127Z,53.80
2022-08-07T12:07:09.052Z,48.10
2022-08-07T12:10:41.684Z,57.10
2022-08-07T12:14:05.360Z,48.70
2022-08-07T12:17:19.877Z,54.60
2022-08-07T12:20:30.262Z,51.80
2022-08-07T12:24:07.102Z,48.50
2022-08-07T12:27:16.905Z,52.00
2022-08-07T12:30:16.426Z,50.00
2022-08-07T12:33:28.257Z,48.20
2022-08-07T12:36:32.940Z,47.70
2022-08-07T12:39:42.488Z,50.00
2022-08-07T12:42:52.676Z,46.10
2022-08-07T12:45:56.635Z,48.50
2022-08-07T12:49:25.550Z,47.30
2022-08-07T12:52:52.330Z,48.30
2022-08-07T12:56:10.300Z,49.70
2022-08-07T12:59:20.419Z,47.00
2022-08-07T13:02:33.278Z,44.20
2022-08-07T13:06:22.045Z,46.90
2022-08-07T13:10:28.600Z,47.00
2022-08-07T13:13:47.408Z,44.90
2022-08-07T13:17:01.033Z,50.00
2022-08-07T13:20:09.508Z,46.40
2022-08-07T13:24:01.194Z,44.60
2022-08-07T13:27:00.411Z,45.70
2022-08-07T13:30:19.013Z,44.90
2022-08-07T13:34:33.615Z,46.30
2022-08-07T13:36:57.596Z,43.40
2022-08-07T13:40:36.666Z,44.50
2022-08-07T13:43:52.403Z,41.70
2022-08-07T13:46:58.781Z,46.70
2022-08-07T13:50:35.063Z,45.10
2022-08-07T13:53:23.743Z,43.60
2022-08-07T13:56:34.958Z,45.30
2022-08-07T13:59:39.692Z,42.30
2022-08-07T14:02:39.832Z,44.40
2022-08-07T14:05:50.698Z,40.90
2022-08-07T14:08:53.633Z,46.30
2022-08-07T14:12:10.338Z,42.40
2022-08-07T14:15:16.746Z,46.70
2022-08-07T14:18:31.278Z,41.30
2022-08-07T14:22:01.696Z,43.70
2022-08-07T14:25:14.031Z,44.70
2022-08-07T14:28:14.070Z,42.30
2022-08-07T14:31:13.489Z,41.10
2022-08-07T14:34:19.983Z,43.30
2022-08-07T14:37:19.062Z,42.40
2022-08-07T14:40:26.609Z,41.10
2022-08-07T14:43:57.212Z,39.40
2022-08-07T14:46:56.552Z,45.30
2022-08-07T14:50:11.291Z,46.80
2022-08-07T14:53:09.972Z,43.10
2022-08-07T14:56:13.165Z,46.50
2022-08-07T15:00:05.781Z,43.30
2022-08-07T15:02:34.499Z,44.30
2022-08-07T15:05:33.052Z,46.60
2022-08-07T15:08:50.386Z,40.80
2022-08-07T15:12:05.257Z,39.70
2022-08-07T15:15:17.384Z,39.50
2022-08-07T15:18:33.781Z,43.10
2022-08-07T15:28:35.865Z,43.40
2022-08-07T15:32:00.860Z,44.40
2022-08-07T15:34:57.182Z,44.00
2022-08-07T15:38:17.427Z,41.20
2022-08-07T15:41:23.940Z,43.10
2022-08-07T15:44:51.774Z,43.80
2022-08-07T15:48:02.068Z,40.40
2022-08-07T15:51:08.482Z,42.90
2022-08-07T15:54:11.881Z,41.40
2022-08-07T15:57:40.210Z,42.10
2022-08-07T16:00:39.753Z,40.50
2022-08-07T16:03:46.277Z,41.40
2022-08-07T16:06:54.325Z,43.60
2022-08-07T16:09:57.085Z,41.90
2022-08-07T16:13:59.438Z,39.30
2022-08-07T16:18:00.950Z,42.80
2022-08-07T16:20:55.226Z,42.40
2022-08-07T16:24:37.237Z,43.20
2022-08-07T16:27:57.259Z,41.60
2022-08-07T16:31:50.728Z,41.10
2022-08-07T16:34:48.650Z,44.40
2022-08-07T16:38:57.250Z,43.00
2022-08-07T16:42:03.579Z,41.30
2022-08-07T16:46:33.602Z,41.00
2022-08-07T16:50:29.368Z,44.30
2022-08-07T16:54:01.548Z,42.80
2022-08-07T16:58:00.768Z,44.40
2022-08-07T17:00:57.126Z,44.70
2022-08-07T17:04:12.473Z,44.30
2022-08-07T17:07:57.714Z,44.70
2022-08-07T17:10:57.418Z,44.10
2022-08-07T17:14:22.274Z,42.50
2022-08-07T17:17:48.003Z,43.30
2022-08-07T17:20:46.543Z,39.70
2022-08-07T17:23:54.927Z,43.20
2022-08-07T17:27:10.102Z,43.50
2022-08-07T17:30:19.155Z,42.00
2022-08-07T17:33:39.125Z,44.00
2022-08-07T17:36:59.922Z,45.10
2022-08-07T17:40:35.470Z,44.00
2022-08-07T17:44:02.638Z,44.40
2022-08-07T17:47:16.804Z,42.90
2022-08-07T17:50:30.532Z,44.50
2022-08-07T17:54:02.354Z,44.00
2022-08-07T17:57:58.232Z,45.30
2022-08-07T18:00:57.572Z,45.10
2022-08-07T18:04:34.784Z,45.40
2022-08-07T18:07:46.751Z,44.20
2022-08-07T18:12:06.491Z,46.00
2022-08-07T18:15:11.242Z,46.60
2022-08-07T18:18:47.013Z,46.90
2022-08-07T18:21:58.537Z,47.60
2022-08-07T18:25:24.251Z,47.60
2022-08-07T18:28:36.282Z,48.30
2022-08-07T18:32:35.293Z,48.10
2022-08-07T18:36:02.854Z,48.60
2022-08-07T18:40:07.124Z,48.20
2022-08-07T18:43:49.177Z,49.00
2022-08-07T18:47:25.461Z,49.40
2022-08-07T18:51:09.900Z,49.50
2022-08-07T18:57:59.680Z,49.00
2022-08-07T19:02:18.305Z,50.00
2022-08-07T19:05:14.954Z,50.50
2022-08-07T19:08:49.558Z,49.30
2022-08-07T19:12:20.992Z,50.40
2022-08-07T19:17:00.355Z,51.10
2022-08-07T19:19:53.233Z,50.90
2022-08-07T19:23:18.606Z,51.30
2022-08-07T19:26:24.643Z,50.80
2022-08-07T19:31:05.964Z,51.40
2022-08-07T19:32:51.293Z,51.30
2022-08-07T19:35:56.579Z,51.80
2022-08-07T19:39:00.219Z,51.80
2022-08-07T19:42:08.124Z,52.30
2022-08-07T19:46:05.750Z,51.90
2022-08-07T19:49:02.500Z,52.60
2022-08-07T19:52:01.372Z,52.80
2022-08-07T21:20:18.934Z,93.00
2022-08-07T21:24:02.808Z,93.30
2022-08-07T21:28:05.911Z,94.20
2022-08-07T21:48:57.536Z,67.20
2022-08-07T21:52:17.711Z,60.00
2022-08-07T21:55:50.536Z,59.50
2022-08-07T21:59:09.843Z,60.20
2022-08-07T22:02:16.033Z,60.90
2022-08-07T22:05:44.727Z,61.80
2022-08-07T22:08:49.107Z,61.00
2022-08-07T22:12:04.924Z,61.90
2022-08-07T22:16:42.597Z,62.20
2022-08-07T22:18:54.985Z,62.80
2022-08-07T22:22:27.896Z,62.60
2022-08-07T22:25:43.558Z,62.70
2022-08-07T22:28:53.175Z,63.80
2022-08-07T22:32:10.595Z,60.60
2022-08-07T22:35:07.837Z,62.00
2022-08-07T22:38:28.429Z,63.60
2022-08-07T22:42:03.136Z,63.40
2022-08-07T22:45:10.960Z,62.40
2022-08-07T22:49:00.823Z,63.70
2022-08-07T22:52:37.004Z,63.60
2022-08-07T22:56:02.956Z,62.70
2022-08-07T22:59:37.738Z,63.20
2022-08-07T23:03:16.999Z,59.70
2022-08-07T23:06:51.644Z,65.60
2022-08-07T23:10:41.892Z,62.20
2022-08-07T23:14:16.626Z,64.70
2022-08-07T23:18:00.654Z,65.80
2022-08-07T23:21:20.950Z,60.60
2022-08-07T23:24:45.545Z,63.30
2022-08-07T23:28:28.554Z,64.70
2022-08-07T23:34:23.671Z,63.30
2022-08-07T23:35:38.827Z,60.80
2022-08-07T23:39:08.687Z,63.10
2022-08-07T23:42:48.288Z,63.20
2022-08-07T23:46:23.789Z,62.20
2022-08-07T23:50:11.911Z,63.30
2022-08-07T23:53:51.286Z,63.00
2022-08-07T23:57:18.429Z,67.60
